Time;durP1;ratioP1;P1;durP2;ratioP2;P2;SDS_P1;SDS_P2;PMS_P1;PMS_P2;Temp;Humidity;BMP_temperature;BMP_pressure;BME280_temperature;BME280_humidity;BME280_pressure;Samples;Min_cycle;Max_cycle;Signal;HPM_P1;HPM_P2
2023/03/14 00:02:22;;;;;;;36.58;8.90;;;8.40;99.90;;;;;;6274487;22;20043;-81
2023/03/14 00:04:48;;;;;;;38.60;7.97;;;8.50;99.90;;;;;;6274891;22;20019;-81
2023/03/14 00:07:14;;;;;;;30.10;6.88;;;8.50;99.90;;;;;;6247430;22;20012;-81
2023/03/14 00:09:39;;;;;;;31.60;7.72;;;8.60;99.90;;;;;;6274691;22;20074;-81
2023/03/14 00:12:07;;;;;;;32.42;7.57;;;8.60;99.90;;;;;;6274259;22;20039;-81
2023/03/14 00:14:33;;;;;;;34.10;7.55;;;8.60;99.90;;;;;;6247269;22;20015;-81
2023/03/14 00:16:58;;;;;;;33.15;7.32;;;8.60;99.90;;;;;;6247361;22;20077;-81
2023/03/14 00:19:24;;;;;;;28.65;7.15;;;8.70;99.90;;;;;;6274771;22;20011;-81
2023/03/14 00:21:50;;;;;;;31.58;7.53;;;8.70;99.90;;;;;;6274633;22;20011;-80
2023/03/14 00:24:15;;;;;;;30.42;7.40;;;8.90;99.90;;;;;;6274431;22;20090;-81
2023/03/14 00:26:41;;;;;;;30.75;7.18;;;9.00;99.90;;;;;;6274236;22;20011;-81
2023/03/14 00:29:06;;;;;;;33.42;7.15;;;9.10;99.90;;;;;;6274720;22;20018;-81
2023/03/14 00:31:32;;;;;;;25.92;7.20;;;9.30;99.90;;;;;;6246661;22;20082;-81
2023/03/14 00:33:58;;;;;;;27.60;7.38;;;9.20;99.90;;;;;;6247242;22;20166;-81
2023/03/14 00:36:24;;;;;;;25.10;6.50;;;9.50;99.90;;;;;;6222019;22;20043;-81
2023/03/14 00:38:51;;;;;;;32.28;7.65;;;9.40;99.90;;;;;;6274684;22;20087;-81
2023/03/14 00:41:20;;;;;;;29.85;7.30;;;9.40;99.90;;;;;;6246535;22;20011;-81
2023/03/14 00:43:45;;;;;;;30.65;6.82;;;9.50;99.90;;;;;;6274431;22;20102;-81
2023/03/14 00:46:12;;;;;;;25.23;6.95;;;9.50;99.90;;;;;;6247112;22;20084;-81
2023/03/14 00:48:38;;;;;;;25.05;6.25;;;9.80;99.90;;;;;;6247178;22;20172;-81
2023/03/14 00:51:05;;;;;;;28.42;7.07;;;9.70;99.90;;;;;;6247359;22;20280;-81
2023/03/14 00:53:30;;;;;;;27.83;6.35;;;9.70;99.90;;;;;;6247008;22;20039;-81
2023/03/14 00:55:56;;;;;;;28.00;6.28;;;9.70;99.90;;;;;;6246536;22;20446;-81
2023/03/14 00:58:22;;;;;;;31.80;6.80;;;9.80;99.90;;;;;;6274340;22;20465;-80
2023/03/14 01:00:47;;;;;;;34.03;7.45;;;9.90;99.90;;;;;;6274247;22;20019;-81
2023/03/14 01:03:14;;;;;;;31.65;7.03;;;9.80;99.90;;;;;;6246944;22;20015;-81
2023/03/14 01:05:40;;;;;;;22.75;5.90;;;9.80;99.90;;;;;;6247436;22;20008;-81
2023/03/14 01:08:06;;;;;;;30.88;6.55;;;9.70;99.90;;;;;;6246967;22;20012;-82
2023/03/14 01:10:33;;;;;;;26.38;6.80;;;9.70;99.90;;;;;;6246839;22;20011;-81
2023/03/14 01:12:58;;;;;;;29.73;6.63;;;9.60;99.90;;;;;;6274354;22;20404;-81
2023/03/14 01:15:24;;;;;;;24.50;6.63;;;9.70;99.90;;;;;;6274066;22;20100;-81
2023/03/14 01:17:50;;;;;;;30.10;6.63;;;9.70;99.90;;;;;;6246717;22;20107;-80
2023/03/14 01:20:16;;;;;;;26.48;6.72;;;9.70;99.90;;;;;;6246803;22;20008;-81
2023/03/14 01:22:43;;;;;;;28.25;6.03;;;9.90;99.90;;;;;;6274022;22;20016;-81
2023/03/14 01:25:13;;;;;;;23.30;5.30;;;9.80;99.90;;;;;;6246229;22;20012;-81
2023/03/14 01:27:39;;;;;;;23.50;6.45;;;9.80;99.90;;;;;;6274244;22;20008;-81
2023/03/14 01:30:05;;;;;;;22.88;5.35;;;9.90;99.90;;;;;;6246709;22;20312;-81
2023/03/14 01:32:31;;;;;;;26.35;6.43;;;9.90;99.90;;;;;;6273769;22;20022;-81
2023/03/14 01:34:57;;;;;;;24.30;6.18;;;9.90;99.90;;;;;;6221409;22;20007;-82
2023/03/14 01:37:22;;;;;;;23.80;5.75;;;10.00;99.90;;;;;;6221566;22;20012;-81
2023/03/14 01:39:48;;;;;;;21.20;5.43;;;10.10;99.90;;;;;;6273870;22;20004;-82
2023/03/14 01:42:15;;;;;;;22.83;5.88;;;10.10;99.90;;;;;;6274224;22;20016;-81
2023/03/14 01:44:58;;;;;;;22.55;5.43;;;10.30;99.90;;;;;;6276341;22;20032;-81
2023/03/14 01:47:24;;;;;;;21.98;5.53;;;10.00;99.90;;;;;;6249151;22;20004;-81
2023/03/14 01:49:55;;;;;;;25.27;5.53;;;10.20;99.90;;;;;;6248887;22;20007;-81
2023/03/14 01:52:43;;;;;;;18.08;4.53;;;10.20;99.90;;;;;;6249212;22;20047;-82
2023/03/14 01:55:20;;;;;;;16.55;5.05;;;10.10;99.90;;;;;;6223367;22;20050;-81
2023/03/14 01:57:55;;;;;;;20.20;5.05;;;10.10;99.90;;;;;;6248787;22;20039;-81
2023/03/14 02:00:23;;;;;;;16.50;4.88;;;10.00;99.90;;;;;;6248682;22;20070;-81
2023/03/14 02:02:53;;;;;;;22.23;4.93;;;10.20;99.90;;;;;;6275669;22;20015;-82
2023/03/14 02:05:25;;;;;;;22.35;5.18;;;10.10;99.90;;;;;;6248619;22;20011;-82
2023/03/14 02:07:59;;;;;;;18.10;5.00;;;10.00;99.90;;;;;;6275378;22;20018;-81
2023/03/14 02:10:29;;;;;;;20.23;4.35;;;10.00;99.90;;;;;;6248798;22;20012;-82
2023/03/14 02:12:57;;;;;;;17.30;4.60;;;9.90;99.90;;;;;;6275851;22;20078;-81
2023/03/14 02:15:23;;;;;;;19.35;5.28;;;9.90;99.90;;;;;;6248475;22;20379;-81
2023/03/14 02:17:49;;;;;;;20.23;4.63;;;10.10;99.90;;;;;;6275959;22;20031;-81
2023/03/14 02:20:34;;;;;;;19.70;4.97;;;9.90;99.90;;;;;;6248653;22;20011;-81
2023/03/14 02:23:00;;;;;;;22.45;4.65;;;9.90;99.90;;;;;;6248078;22;20312;-81
2023/03/14 02:25:39;;;;;;;18.42;4.85;;;9.90;99.90;;;;;;6248676;22;20015;-81
2023/03/14 02:28:05;;;;;;;17.30;4.50;;;9.90;99.90;;;;;;6248352;22;20381;-81
2023/03/14 02:30:31;;;;;;;18.25;4.60;;;10.20;99.90;;;;;;6248457;22;20015;-81
2023/03/14 02:33:05;;;;;;;18.00;4.57;;;9.90;99.90;;;;;;6248271;22;20012;-81
2023/03/14 02:35:50;;;;;;;15.02;3.90;;;9.90;99.90;;;;;;6275984;22;20012;-81
2023/03/14 02:38:15;;;;;;;18.95;4.30;;;9.80;99.90;;;;;;6247864;22;20018;-81
2023/03/14 02:40:41;;;;;;;14.60;3.70;;;9.80;99.90;;;;;;6248400;22;20012;-81
2023/03/14 02:43:06;;;;;;;14.63;4.20;;;9.80;99.90;;;;;;6222908;22;20031;-81
2023/03/14 02:45:38;;;;;;;14.15;4.28;;;9.80;99.90;;;;;;6275800;22;20007;-81
2023/03/14 02:48:17;;;;;;;18.10;3.97;;;9.70;99.90;;;;;;6222977;22;20008;-81
2023/03/14 02:50:45;;;;;;;11.18;4.07;;;9.70;99.90;;;;;;6275120;22;20079;-81
2023/03/14 02:53:13;;;;;;;15.38;3.72;;;9.70;99.90;;;;;;6248188;22;20391;-81
2023/03/14 02:55:39;;;;;;;17.17;3.90;;;9.80;99.90;;;;;;6247812;22;20039;-81
2023/03/14 02:58:05;;;;;;;19.10;4.03;;;9.60;99.90;;;;;;6248233;22;20015;-81
2023/03/14 03:00:30;;;;;;;14.43;4.10;;;9.60;99.90;;;;;;6275579;22;20012;-81
2023/03/14 03:02:56;;;;;;;16.08;4.43;;;9.70;99.90;;;;;;6248280;22;20435;-81
2023/03/14 03:05:21;;;;;;;16.40;4.13;;;9.80;99.90;;;;;;6274924;22;20095;-81
2023/03/14 03:07:47;;;;;;;13.43;3.70;;;9.60;99.90;;;;;;6248122;22;20124;-81
2023/03/14 03:10:13;;;;;;;15.43;3.58;;;9.60;99.90;;;;;;6248229;22;20039;-81
2023/03/14 03:12:38;;;;;;;14.55;3.90;;;9.60;99.90;;;;;;6248008;22;20020;-81
2023/03/14 03:15:04;;;;;;;13.63;3.22;;;9.70;99.90;;;;;;6275461;22;20342;-81
2023/03/14 03:17:30;;;;;;;15.18;4.47;;;9.60;99.90;;;;;;6248098;22;20395;-81
2023/03/14 03:19:56;;;;;;;15.98;4.03;;;9.60;99.90;;;;;;6247379;22;20011;-81
2023/03/14 03:22:21;;;;;;;18.45;5.28;;;9.70;99.90;;;;;;6247712;22;20103;-81
2023/03/14 03:24:47;;;;;;;19.85;5.57;;;9.60;99.90;;;;;;6275086;22;20023;-81
2023/03/14 03:27:12;;;;;;;23.30;6.28;;;9.60;99.90;;;;;;6248025;22;20042;-81
2023/03/14 03:29:38;;;;;;;16.42;5.88;;;9.50;99.90;;;;;;6222501;22;20427;-81
2023/03/14 03:32:03;;;;;;;25.35;6.95;;;9.50;99.90;;;;;;6247825;22;20062;-81
2023/03/14 03:34:29;;;;;;;25.27;7.38;;;9.40;99.90;;;;;;6247252;22;20821;-81
2023/03/14 03:36:58;;;;;;;18.92;6.13;;;9.40;99.90;;;;;;6222435;22;20086;-81
2023/03/14 03:39:24;;;;;;;26.45;6.72;;;9.40;99.90;;;;;;6247752;22;20012;-81
2023/03/14 03:41:49;;;;;;;21.92;6.93;;;9.40;99.90;;;;;;6275183;22;20011;-81
2023/03/14 03:44:15;;;;;;;19.73;6.85;;;9.40;99.90;;;;;;6247616;22;20446;-81
2023/03/14 03:46:40;;;;;;;19.17;6.88;;;9.30;99.90;;;;;;6274784;22;20090;-81
2023/03/14 03:49:06;;;;;;;21.27;6.80;;;9.30;99.90;;;;;;6247050;22;20014;-81
2023/03/14 03:51:31;;;;;;;21.50;7.70;;;9.20;99.90;;;;;;6275061;22;20065;-81
2023/03/14 03:53:57;;;;;;;23.15;7.05;;;9.50;99.90;;;;;;6275167;22;20011;-81
2023/03/14 03:56:23;;;;;;;28.13;7.22;;;9.30;99.90;;;;;;6275187;22;20058;-81
2023/03/14 03:58:48;;;;;;;20.98;6.95;;;9.20;99.90;;;;;;6275006;22;20046;-81
2023/03/14 04:01:15;;;;;;;19.90;6.55;;;9.50;99.90;;;;;;6274949;22;20016;-81
2023/03/14 04:03:41;;;;;;;23.38;6.63;;;9.20;99.90;;;;;;6246830;22;20022;-81
2023/03/14 04:06:11;;;;;;;20.92;7.60;;;9.60;99.90;;;;;;6221958;22;20012;-82
2023/03/14 04:08:37;;;;;;;22.10;7.05;;;9.20;99.90;;;;;;6247585;22;20019;-81
2023/03/14 04:11:03;;;;;;;25.92;8.05;;;9.20;99.90;;;;;;6247342;22;20008;-81
2023/03/14 04:13:29;;;;;;;20.48;7.82;;;9.10;99.90;;;;;;6247344;22;20018;-81
2023/03/14 04:15:56;;;;;;;23.48;8.43;;;9.10;99.90;;;;;;6247382;22;20012;-82
2023/03/14 04:18:22;;;;;;;19.40;7.50;;;9.10;99.90;;;;;;6274096;22;20050;-81
2023/03/14 04:20:52;;;;;;;18.25;7.70;;;9.10;99.90;;;;;;6247198;22;20441;-81
2023/03/14 04:23:18;;;;;;;18.50;8.32;;;9.10;99.90;;;;;;6247620;22;20008;-81
2023/03/14 04:25:43;;;;;;;19.25;7.60;;;9.10;99.90;;;;;;6274894;22;20008;-81
2023/03/14 04:28:09;;;;;;;20.75;8.63;;;9.00;99.90;;;;;;6247332;22;20439;-81
2023/03/14 04:30:35;;;;;;;20.65;9.00;;;9.00;99.90;;;;;;6222112;22;20007;-81
2023/03/14 04:33:00;;;;;;;19.65;8.70;;;9.00;99.90;;;;;;6273835;22;20023;-82
2023/03/14 04:35:26;;;;;;;20.67;8.73;;;9.00;99.90;;;;;;6247256;22;20011;-81
2023/03/14 04:37:51;;;;;;;21.60;8.50;;;9.00;99.90;;;;;;6247246;22;20069;-81
2023/03/14 04:40:17;;;;;;;18.90;9.20;;;9.10;99.90;;;;;;6247428;22;20042;-81
2023/03/14 04:42:43;;;;;;;18.45;8.63;;;9.00;99.90;;;;;;6274574;22;20039;-81
2023/03/14 04:45:09;;;;;;;21.13;8.88;;;9.00;99.90;;;;;;6222068;22;20335;-81
2023/03/14 04:47:35;;;;;;;19.90;9.32;;;8.90;99.90;;;;;;6273958;22;20453;-81
2023/03/14 04:50:00;;;;;;;23.33;8.98;;;9.20;99.90;;;;;;6221758;22;20446;-80
2023/03/14 04:52:27;;;;;;;21.52;8.77;;;9.00;99.90;;;;;;6274565;22;20058;-81
2023/03/14 04:54:53;;;;;;;17.98;7.97;;;9.00;99.90;;;;;;6274386;22;20362;-81
2023/03/14 04:57:19;;;;;;;19.08;7.65;;;8.90;99.90;;;;;;6247166;22;20153;-82
2023/03/14 04:59:44;;;;;;;20.85;7.72;;;9.30;99.90;;;;;;6247050;22;20087;-80
2023/03/14 05:02:10;;;;;;;16.80;7.05;;;9.30;99.90;;;;;;6246222;22;20019;-81
2023/03/14 05:04:35;;;;;;;18.05;7.18;;;8.90;99.90;;;;;;6246974;22;20012;-82
2023/03/14 05:07:01;;;;;;;17.15;7.32;;;8.90;99.90;;;;;;6246470;22;20063;-81
2023/03/14 05:09:27;;;;;;;18.75;7.90;;;8.90;99.90;;;;;;6247119;22;20330;-82
2023/03/14 05:11:52;;;;;;;16.77;7.50;;;8.90;99.90;;;;;;6246863;22;20015;-81
2023/03/14 05:14:18;;;;;;;17.55;8.13;;;8.90;99.90;;;;;;6274346;22;20011;-81
2023/03/14 05:16:44;;;;;;;19.83;8.00;;;8.90;99.90;;;;;;6246178;22;20154;-80
2023/03/14 05:19:10;;;;;;;20.08;8.57;;;8.90;99.90;;;;;;6247185;22;20443;-81
2023/03/14 05:21:36;;;;;;;21.77;8.10;;;8.80;99.90;;;;;;6274395;22;20087;-81
2023/03/14 05:24:02;;;;;;;24.38;8.82;;;8.90;99.90;;;;;;6274348;22;20054;-82
2023/03/14 05:26:28;;;;;;;18.38;8.45;;;8.90;99.90;;;;;;6274563;22;20648;-80
2023/03/14 05:28:53;;;;;;;20.10;8.20;;;8.90;99.90;;;;;;6246743;22;20043;-81
2023/03/14 05:31:19;;;;;;;25.17;8.57;;;8.90;99.90;;;;;;6273387;22;20022;-81
2023/03/14 05:33:44;;;;;;;17.33;8.05;;;8.90;99.90;;;;;;6274264;22;20020;-81
2023/03/14 05:36:10;;;;;;;22.65;9.05;;;8.90;99.90;;;;;;6246674;22;20019;-81
2023/03/14 05:38:36;;;;;;;20.48;9.18;;;8.90;99.90;;;;;;6246639;22;20180;-81
2023/03/14 05:41:01;;;;;;;21.55;9.65;;;8.90;99.90;;;;;;6274230;22;20299;-82
2023/03/14 05:43:27;;;;;;;21.73;8.70;;;8.80;99.90;;;;;;6274073;22;20008;-81
2023/03/14 05:45:52;;;;;;;25.92;9.18;;;8.90;99.90;;;;;;6220890;22;20004;-82
2023/03/14 05:48:18;;;;;;;19.73;9.40;;;8.80;99.90;;;;;;6274042;22;20060;-82
2023/03/14 05:50:44;;;;;;;20.27;9.27;;;8.80;99.90;;;;;;6274101;22;20014;-82
2023/03/14 05:53:09;;;;;;;20.92;9.35;;;8.90;99.90;;;;;;6246527;22;20094;-80
2023/03/14 05:55:35;;;;;;;20.80;9.50;;;8.80;99.90;;;;;;6246885;22;20007;-81
2023/03/14 05:58:00;;;;;;;26.60;10.15;;;8.80;99.90;;;;;;6221580;22;20099;-80
2023/03/14 06:00:26;;;;;;;24.00;10.45;;;8.80;99.90;;;;;;6220855;22;20008;-81
2023/03/14 06:02:52;;;;;;;22.60;10.25;;;8.80;99.90;;;;;;6246661;22;20065;-80
2023/03/14 06:05:17;;;;;;;22.35;10.15;;;8.80;99.90;;;;;;6274080;22;20004;-80
2023/03/14 06:07:43;;;;;;;18.23;8.75;;;8.80;99.90;;;;;;6246728;22;20008;-80
2023/03/14 06:10:09;;;;;;;17.13;9.57;;;8.80;99.90;;;;;;6246748;22;20474;-80
2023/03/14 06:12:35;;;;;;;16.75;9.90;;;8.80;99.90;;;;;;6273740;22;20011;-80
2023/03/14 06:15:00;;;;;;;20.55;9.77;;;8.80;99.90;;;;;;6273092;22;20023;-81
2023/03/14 06:17:26;;;;;;;23.60;9.60;;;8.90;99.90;;;;;;6246270;22;20015;-80
2023/03/14 06:19:52;;;;;;;17.75;9.90;;;8.80;99.90;;;;;;6246652;22;20050;-81
2023/03/14 06:22:17;;;;;;;20.67;9.40;;;8.80;99.90;;;;;;6221053;22;20054;-81
2023/03/14 06:24:43;;;;;;;22.10;9.27;;;8.80;99.90;;;;;;6246713;22;20385;-80
2023/03/14 06:27:08;;;;;;;17.30;8.32;;;8.80;99.90;;;;;;6273993;22;20335;-81
2023/03/14 06:29:34;;;;;;;19.30;7.90;;;8.80;99.90;;;;;;6221823;22;20014;-80
2023/03/14 06:32:00;;;;;;;20.33;7.53;;;9.00;99.90;;;;;;6248140;22;20118;-81
2023/03/14 06:34:25;;;;;;;15.50;7.18;;;8.80;99.90;;;;;;6248149;22;20334;-80
2023/03/14 06:36:51;;;;;;;15.25;6.65;;;8.80;99.90;;;;;;6248430;22;20066;-80
2023/03/14 06:39:16;;;;;;;12.48;6.40;;;8.80;99.90;;;;;;6248241;22;20012;-80
2023/03/14 06:41:42;;;;;;;15.20;6.50;;;8.80;99.90;;;;;;6248229;22;20271;-80
2023/03/14 06:44:07;;;;;;;20.40;7.35;;;8.80;99.90;;;;;;6247688;22;20014;-80
2023/03/14 06:46:33;;;;;;;11.73;6.70;;;8.80;99.90;;;;;;6248027;22;20053;-80
2023/03/14 06:48:59;;;;;;;14.65;7.25;;;8.80;99.90;;;;;;6248190;22;20169;-81
2023/03/14 06:51:24;;;;;;;19.10;8.75;;;8.80;99.90;;;;;;6275447;22;20079;-82
2023/03/14 06:53:50;;;;;;;21.38;7.57;;;8.80;99.90;;;;;;6275292;22;20393;-82
2023/03/14 06:56:16;;;;;;;11.52;2.42;;;8.90;99.90;;;;;;6275657;22;20015;-80
2023/03/14 06:58:41;;;;;;;6.60;2.00;;;8.50;99.90;;;;;;6247745;22;20104;-80
2023/03/14 07:01:26;;;;;;;8.57;2.00;;;8.10;99.90;;;;;;6275048;22;20012;-79
2023/03/14 07:03:52;;;;;;;13.20;2.35;;;7.90;99.90;;;;;;6275225;22;20079;-79
2023/03/14 07:06:18;;;;;;;19.35;2.72;;;7.70;99.90;;;;;;6274531;22;20098;-79
2023/03/14 07:08:44;;;;;;;11.77;2.47;;;7.40;99.90;;;;;;6247366;22;20012;-78
2023/03/14 07:11:10;;;;;;;17.10;3.40;;;7.30;99.90;;;;;;6247756;22;20011;-79
2023/03/14 07:13:37;;;;;;;15.40;2.90;;;7.10;99.90;;;;;;6274397;22;20065;-79
2023/03/14 07:16:03;;;;;;;9.05;2.30;;;6.90;99.90;;;;;;6247624;22;20443;-80
2023/03/14 07:18:28;;;;;;;12.80;2.80;;;6.80;99.90;;;;;;6274823;22;20012;-80
2023/03/14 07:20:54;;;;;;;14.50;2.40;;;6.60;99.90;;;;;;6247122;22;20020;-80
2023/03/14 07:23:20;;;;;;;14.15;2.60;;;6.40;99.90;;;;;;6247669;22;20015;-80
2023/03/14 07:25:48;;;;;;;15.05;2.83;;;6.20;99.90;;;;;;6275088;22;20039;-79
2023/03/14 07:28:14;;;;;;;20.08;2.70;;;6.00;99.90;;;;;;6247043;22;20039;-80
2023/03/14 07:30:39;;;;;;;15.52;2.78;;;5.90;99.90;;;;;;6247304;22;20035;-80
2023/03/14 07:33:05;;;;;;;18.65;2.60;;;5.70;99.90;;;;;;6274694;22;20004;-80
2023/03/14 07:35:30;;;;;;;14.60;2.90;;;5.60;99.90;;;;;;6247204;22;20095;-80
2023/03/14 07:37:56;;;;;;;14.35;2.47;;;5.40;99.90;;;;;;6274864;22;20015;-80
2023/03/14 07:40:22;;;;;;;17.85;2.50;;;5.40;99.90;;;;;;6274658;22;20726;-81
2023/03/14 07:42:48;;;;;;;10.38;1.73;;;5.40;99.90;;;;;;6247031;22;20423;-80
2023/03/14 07:45:16;;;;;;;10.13;1.75;;;5.70;99.90;;;;;;6247314;22;20023;-80
2023/03/14 07:47:42;;;;;;;10.05;2.00;;;5.20;99.90;;;;;;6275009;22;20012;-80
2023/03/14 07:50:08;;;;;;;6.15;1.25;;;5.10;99.90;;;;;;6247445;22;20011;-80
2023/03/14 07:52:34;;;;;;;9.85;1.83;;;4.90;99.90;;;;;;6246992;22;20011;-80
2023/03/14 07:55:00;;;;;;;7.00;1.40;;;4.80;99.90;;;;;;6247174;22;20027;-80
2023/03/14 07:57:25;;;;;;;5.35;1.10;;;4.70;99.90;;;;;;6247154;22;20172;-80
2023/03/14 07:59:51;;;;;;;13.95;2.05;;;4.60;99.90;;;;;;6221935;22;20296;-80
2023/03/14 08:02:17;;;;;;;7.18;1.20;;;4.60;99.90;;;;;;6247034;22;20014;-80
2023/03/14 08:04:43;;;;;;;9.65;1.40;;;4.50;99.90;;;;;;6274479;22;20334;-81
2023/03/14 08:07:09;;;;;;;11.40;1.80;;;4.50;99.90;;;;;;6274397;22;20011;-80
2023/03/14 08:09:34;;;;;;;5.85;1.10;;;4.50;99.90;;;;;;6247325;22;20015;-80
2023/03/14 08:12:00;;;;;;;12.82;1.40;;;4.50;99.90;;;;;;6274013;22;20012;-80
2023/03/14 08:14:26;;;;;;;7.60;1.20;;;4.50;99.90;;;;;;6274358;22;20087;-79
2023/03/14 08:16:52;;;;;;;8.23;1.20;;;4.50;99.90;;;;;;6221446;22;20480;-80
2023/03/14 08:19:17;;;;;;;8.43;1.65;;;4.50;99.90;;;;;;6221459;22;20022;-79
2023/03/14 08:21:43;;;;;;;8.88;1.25;;;4.60;99.90;;;;;;6247231;22;20035;-80
2023/03/14 08:24:09;;;;;;;7.80;1.25;;;4.60;99.90;;;;;;6221565;22;20431;-80
2023/03/14 08:26:35;;;;;;;6.72;1.10;;;4.70;99.90;;;;;;6274471;22;20004;-79
2023/03/14 08:29:00;;;;;;;10.15;1.52;;;4.70;99.90;;;;;;6221718;22;20422;-80
2023/03/14 08:31:26;;;;;;;12.10;1.95;;;4.70;99.90;;;;;;6246650;22;20346;-79
2023/03/14 08:33:54;;;;;;;5.85;1.65;;;4.70;99.90;;;;;;6247260;22;20313;-80
2023/03/14 08:36:20;;;;;;;8.77;1.67;;;4.80;99.90;;;;;;6274234;22;20339;-80
2023/03/14 08:38:46;;;;;;;8.65;1.50;;;4.90;99.90;;;;;;6273587;22;20011;-80
2023/03/14 08:41:11;;;;;;;8.43;1.70;;;5.00;99.90;;;;;;6246953;22;20012;-80
2023/03/14 08:43:37;;;;;;;8.10;1.55;;;5.10;99.90;;;;;;6246665;22;20288;-80
2023/03/14 08:46:03;;;;;;;7.45;2.08;;;5.10;99.90;;;;;;6246680;22;20027;-80
2023/03/14 08:48:29;;;;;;;7.00;1.67;;;5.20;99.90;;;;;;6247034;22;20329;-80
2023/03/14 08:51:15;;;;;;;10.57;1.90;;;5.20;99.90;;;;;;6273953;22;20087;-80
2023/03/14 08:53:41;;;;;;;11.05;1.73;;;5.20;99.90;;;;;;6272333;22;20022;-79
2023/03/14 08:56:09;;;;;;;12.73;2.70;;;5.70;99.90;;;;;;6274086;22;20003;-79
2023/03/14 08:58:37;;;;;;;9.45;2.40;;;5.40;99.90;;;;;;6246854;22;20014;-79
2023/03/14 09:01:07;;;;;;;14.23;2.13;;;5.60;99.90;;;;;;6246848;22;20023;-79
2023/03/14 09:03:33;;;;;;;13.85;2.53;;;5.60;99.90;;;;;;6274030;22;20011;-79
2023/03/14 09:06:08;;;;;;;13.73;2.60;;;5.70;99.90;;;;;;6246741;22;20281;-79
2023/03/14 09:08:34;;;;;;;14.02;2.72;;;5.70;99.90;;;;;;6245872;22;20014;-79
2023/03/14 09:10:59;;;;;;;13.15;2.50;;;5.80;99.90;;;;;;6273952;22;20004;-79
2023/03/14 09:13:25;;;;;;;14.80;3.40;;;6.00;99.90;;;;;;6246305;22;20011;-79
2023/03/14 09:15:55;;;;;;;22.80;4.13;;;6.00;99.90;;;;;;6246502;22;20039;-79
2023/03/14 09:18:21;;;;;;;18.00;3.60;;;6.10;99.90;;;;;;6273841;22;20011;-79
2023/03/14 09:20:47;;;;;;;20.35;3.53;;;6.20;99.90;;;;;;6221094;22;20008;-79
2023/03/14 09:23:12;;;;;;;21.33;3.65;;;6.20;99.90;;;;;;6246171;22;20424;-80
2023/03/14 09:25:38;;;;;;;25.85;4.30;;;6.20;99.90;;;;;;6273936;22;20334;-79
2023/03/14 09:28:04;;;;;;;17.58;4.10;;;6.40;99.90;;;;;;6246745;22;20334;-79
2023/03/14 09:30:30;;;;;;;17.20;4.13;;;6.50;99.90;;;;;;6221500;22;20012;-79
2023/03/14 09:32:56;;;;;;;22.15;4.53;;;6.60;99.90;;;;;;6217764;23;20021;-79
2023/03/14 09:35:22;;;;;;;20.10;4.18;;;6.80;99.90;;;;;;6185881;23;20164;-80
2023/03/14 09:37:48;;;;;;;22.95;5.28;;;6.90;99.90;;;;;;6210305;23;20536;-79
2023/03/14 09:40:16;;;;;;;20.70;4.35;;;6.80;99.90;;;;;;6210910;23;20008;-79
2023/03/14 09:42:42;;;;;;;25.83;5.25;;;6.70;99.90;;;;;;6210557;23;20023;-79
2023/03/14 09:45:22;;;;;;;22.48;4.22;;;6.60;99.90;;;;;;6212740;23;20008;-80
2023/03/14 09:47:48;;;;;;;26.15;5.15;;;6.50;99.90;;;;;;6185777;23;20080;-79
2023/03/14 09:50:15;;;;;;;24.15;4.60;;;6.60;99.90;;;;;;6212659;23;20035;-80
2023/03/14 09:52:46;;;;;;;22.92;5.32;;;6.60;99.90;;;;;;6210326;23;20016;-79
2023/03/14 09:55:15;;;;;;;25.95;4.88;;;6.60;99.90;;;;;;6212716;23;20036;-79
2023/03/14 09:57:42;;;;;;;25.17;4.20;;;6.50;99.90;;;;;;6210683;23;20016;-79
2023/03/14 10:00:19;;;;;;;24.25;5.65;;;6.60;99.90;;;;;;6185624;23;20004;-79
2023/03/14 10:02:54;;;;;;;21.15;5.07;;;6.50;99.90;;;;;;6185617;23;20289;-79
2023/03/14 10:05:22;;;;;;;26.23;4.85;;;6.70;99.90;;;;;;6214620;23;20027;-79
2023/03/14 10:07:48;;;;;;;25.77;4.78;;;6.70;99.90;;;;;;6212516;23;20008;-79
2023/03/14 10:10:17;;;;;;;28.33;4.75;;;6.70;99.90;;;;;;6187560;23;20051;-79
2023/03/14 10:12:46;;;;;;;28.50;4.88;;;6.80;99.90;;;;;;6214638;23;20012;-79
2023/03/14 10:15:17;;;;;;;32.90;5.65;;;6.80;99.90;;;;;;6212442;23;20004;-80
2023/03/14 10:17:51;;;;;;;20.10;4.53;;;7.00;99.90;;;;;;6187462;23;20031;-79
2023/03/14 10:20:35;;;;;;;28.70;5.40;;;7.00;99.90;;;;;;6186837;23;20016;-79
2023/03/14 10:23:04;;;;;;;34.70;5.70;;;7.00;99.90;;;;;;6212157;23;20096;-79
2023/03/14 10:25:35;;;;;;;24.00;6.18;;;6.90;99.90;;;;;;6212441;23;20012;-79
2023/03/14 10:28:03;;;;;;;26.10;5.63;;;6.80;99.90;;;;;;6187337;23;20012;-79
2023/03/14 10:30:44;;;;;;;25.58;5.38;;;6.80;99.90;;;;;;6212682;23;20008;-79
2023/03/14 10:33:21;;;;;;;22.92;5.00;;;6.90;99.90;;;;;;6212085;23;20051;-79
2023/03/14 10:35:55;;;;;;;34.10;5.10;;;6.90;99.90;;;;;;6211949;23;20036;-79
2023/03/14 10:38:27;;;;;;;31.25;5.28;;;7.00;99.90;;;;;;6187739;23;20048;-79
2023/03/14 10:40:54;;;;;;;38.20;5.63;;;7.00;99.90;;;;;;6212333;23;20009;-79
2023/03/14 10:43:26;;;;;;;31.20;5.55;;;7.10;99.90;;;;;;6212331;23;20428;-79
2023/03/14 10:46:02;;;;;;;22.43;4.57;;;7.10;99.90;;;;;;6187311;23;20020;-79
2023/03/14 10:48:37;;;;;;;28.52;4.90;;;7.30;99.90;;;;;;6212725;23;20074;-79
2023/03/14 10:51:15;;;;;;;23.00;4.72;;;7.30;99.90;;;;;;6211888;23;20044;-79
2023/03/14 10:53:46;;;;;;;20.30;4.43;;;7.20;99.90;;;;;;6212401;23;20405;-79
2023/03/14 10:56:20;;;;;;;16.17;3.70;;;7.20;99.90;;;;;;6212225;23;20016;-79
2023/03/14 10:58:48;;;;;;;17.45;3.88;;;7.20;99.90;;;;;;6212361;23;20013;-79
2023/03/14 11:01:40;;;;;;;18.02;4.03;;;7.20;99.90;;;;;;6214169;23;20131;-79
2023/03/14 11:04:08;;;;;;;20.58;3.85;;;7.20;99.90;;;;;;6186555;23;20289;-79
2023/03/14 11:06:54;;;;;;;16.25;3.55;;;7.20;99.90;;;;;;6213636;23;20436;-79
2023/03/14 11:09:38;;;;;;;15.75;3.33;;;7.30;99.90;;;;;;6187200;23;20016;-79
2023/03/14 11:13:02;;;;;;;20.05;3.70;;;7.40;99.90;;;;;;6212777;23;20283;-79
2023/03/14 11:15:36;;;;;;;20.43;3.97;;;7.40;99.90;;;;;;6101419;23;20193;-79
2023/03/14 11:18:29;;;;;;;19.98;3.67;;;7.30;99.90;;;;;;6102093;23;20155;-79
2023/03/14 11:21:15;;;;;;;16.13;3.42;;;7.40;99.90;;;;;;6126374;23;20346;-79
2023/03/14 11:24:10;;;;;;;21.15;3.38;;;7.50;99.90;;;;;;6126402;23;20326;-79
2023/03/14 11:26:46;;;;;;;;;;;7.50;99.90;;;;;;6126894;23;20017;-79
2023/03/14 11:29:20;;;;;;;13.55;2.80;;;7.20;99.90;;;;;;6150962;23;19988;-79
2023/03/14 11:31:46;;;;;;;14.00;3.33;;;7.30;99.90;;;;;;6134510;23;20017;-79
2023/03/14 11:34:18;;;;;;;15.55;3.45;;;7.40;99.90;;;;;;6155121;23;20088;-79
2023/03/14 11:36:51;;;;;;;16.00;3.60;;;7.40;99.90;;;;;;6155652;23;20483;-79
2023/03/14 11:39:19;;;;;;;12.55;2.92;;;7.40;99.90;;;;;;6155610;23;20012;-79
2023/03/14 11:41:52;;;;;;;12.30;2.45;;;7.40;99.90;;;;;;6131081;23;20099;-80
2023/03/14 11:44:37;;;;;;;11.02;2.53;;;7.30;99.90;;;;;;6130830;23;20045;-79
2023/03/14 11:47:18;;;;;;;7.32;2.10;;;7.10;99.90;;;;;;6204207;23;20012;-79
2023/03/14 11:49:50;;;;;;;8.55;2.30;;;7.20;99.90;;;;;;6186595;23;20044;-79
2023/03/14 11:53:00;;;;;;;8.48;2.20;;;7.40;99.90;;;;;;6211533;23;20012;-79
2023/03/14 11:55:27;;;;;;;11.27;2.60;;;7.40;99.80;;;;;;6173037;23;20375;-79
2023/03/14 11:58:02;;;;;;;8.52;2.33;;;7.50;99.90;;;;;;6213385;23;20305;-79
2023/03/14 12:00:29;;;;;;;10.43;2.42;;;7.60;99.90;;;;;;6186412;23;20063;-79
2023/03/14 12:03:22;;;;;;;11.90;2.90;;;7.80;99.90;;;;;;6211147;23;20009;-79
2023/03/14 12:06:03;;;;;;;8.15;2.38;;;8.00;99.90;;;;;;6211387;23;20023;-79
2023/03/14 12:08:43;;;;;;;11.00;2.78;;;7.90;99.90;;;;;;6186418;23;20280;-79
2023/03/14 12:11:34;;;;;;;9.95;2.10;;;8.00;99.90;;;;;;6211760;23;20009;-79
2023/03/14 12:14:00;;;;;;;11.57;2.22;;;8.00;99.90;;;;;;6210992;23;20270;-80
2023/03/14 12:16:37;;;;;;;10.15;2.55;;;8.10;99.90;;;;;;6185757;23;20016;-79
2023/03/14 12:19:27;;;;;;;11.02;2.63;;;8.20;99.90;;;;;;6211374;23;20344;-79
2023/03/14 12:22:00;;;;;;;12.98;2.25;;;8.30;99.90;;;;;;6211156;23;20008;-79
2023/03/14 12:24:29;;;;;;;11.30;2.20;;;8.30;99.90;;;;;;6186547;23;20012;-79
2023/03/14 12:26:57;;;;;;;9.50;2.38;;;8.30;99.90;;;;;;6211236;23;20022;-79
2023/03/14 12:29:23;;;;;;;10.60;2.33;;;8.30;99.90;;;;;;6212767;23;20024;-79
2023/03/14 12:32:07;;;;;;;21.63;3.50;;;8.00;99.40;;;;;;6199972;22;20015;-78
2023/03/14 12:34:33;;;;;;;;;;;8.20;99.90;;;;;;6247455;22;20342;-79
2023/03/14 12:37:10;;;;;;;20.92;3.15;;;8.40;99.90;;;;;;6274004;22;20280;-79
2023/03/14 12:39:48;;;;;;;12.40;2.40;;;8.60;99.90;;;;;;6247157;22;20051;-79
2023/03/14 12:42:29;;;;;;;13.80;3.15;;;8.60;99.90;;;;;;6273816;22;20262;-79
2023/03/14 12:45:34;;;;;;;15.07;2.97;;;8.50;99.90;;;;;;6273730;22;20398;-79
2023/03/14 12:48:08;;;;;;;10.07;2.63;;;8.20;99.90;;;;;;6221174;22;20020;-78
2023/03/14 12:50:42;;;;;;;11.65;2.63;;;8.50;99.90;;;;;;6246899;22;20390;-79
2023/03/14 12:53:28;;;;;;;13.20;2.60;;;8.50;99.50;;;;;;6221584;22;20050;-79
2023/03/14 12:56:21;;;;;;;11.30;3.05;;;8.60;99.90;;;;;;6246879;22;20012;-80
2023/03/14 12:59:19;;;;;;;17.05;3.38;;;8.60;99.90;;;;;;6221286;22;20015;-79